createdAt,value
2019-03-16T00:03:06.945Z,-1.6
2019-03-16T00:08:03.687Z,-1.6
2019-03-16T00:13:00.195Z,-2.1
2019-03-16T00:17:56.882Z,-1.7
2019-03-16T00:22:53.386Z,-1.4
2019-03-16T00:27:49.464Z,-1.3
2019-03-16T00:32:45.174Z,-1.9
2019-03-16T00:37:41.413Z,-1.9
2019-03-16T00:42:37.364Z,-1.7
2019-03-16T00:47:34.077Z,-1.6
2019-03-16T00:52:30.555Z,-2.2
2019-03-16T00:57:27.219Z,-1.8
2019-03-16T01:02:27.233Z,-2.2
2019-03-16T01:07:22.699Z,-1.5
2019-03-16T01:12:19.466Z,-1.5
2019-03-16T01:17:15.856Z,-1.9
2019-03-16T01:22:12.211Z,-1.7
2019-03-16T01:27:08.954Z,-1.4
2019-03-16T01:32:06.079Z,-1
2019-03-16T01:37:02.805Z,-0.9
2019-03-16T01:41:59.513Z,-0.7
2019-03-16T01:46:56.002Z,-0.8
2019-03-16T01:51:52.508Z,-1.4
2019-03-16T01:56:49.094Z,-0.8
2019-03-16T02:01:48.978Z,-0.7
2019-03-16T02:06:45.285Z,-0.9
2019-03-16T02:11:41.765Z,-0.7
2019-03-16T02:16:37.942Z,-0.9
2019-03-16T02:21:34.810Z,-0.5
2019-03-16T02:26:31.508Z,-0.4
2019-03-16T02:31:28.318Z,-1.1
2019-03-16T02:36:25.052Z,-0.2
2019-03-16T02:41:21.868Z,-0.2
2019-03-16T02:46:18.635Z,-0.2
2019-03-16T02:51:15.230Z,-0.8
2019-03-16T02:56:11.867Z,-0.2
2019-03-16T03:01:08.248Z,-0.3
2019-03-16T03:06:05.121Z,-0.1
2019-03-16T03:11:01.808Z,-0.2
2019-03-16T03:15:58.618Z,-0.1
2019-03-16T03:20:55.074Z,-0.1
2019-03-16T03:25:51.792Z,-0.1
2019-03-16T03:30:48.432Z,-0.3
2019-03-16T03:35:45.337Z,-0.5
2019-03-16T03:40:41.161Z,-0.9
2019-03-16T03:45:37.586Z,-2.1
2019-03-16T03:50:33.788Z,-1.5
2019-03-16T03:55:30.480Z,-1.7
2019-03-16T04:00:26.912Z,-1.8
2019-03-16T04:05:23.597Z,-1.9
2019-03-16T04:10:20.270Z,-1.6
2019-03-16T04:15:16.981Z,-1.7
2019-03-16T04:20:13.741Z,-2
2019-03-16T04:25:10.375Z,-2
2019-03-16T04:30:06.960Z,-2
2019-03-16T04:35:03.553Z,-2.7
2019-03-16T04:40:00.448Z,-1.9
2019-03-16T04:44:56.575Z,-1.7
2019-03-16T04:49:53.045Z,-1.7
2019-03-16T04:54:49.283Z,-1.8
2019-03-16T04:59:46.839Z,-1.1
2019-03-16T05:04:43.498Z,-0.9
2019-03-16T05:09:39.499Z,-0.7
2019-03-16T05:14:36.400Z,-0.7
2019-03-16T05:19:33.061Z,-0.8
2019-03-16T05:24:30.117Z,-0.2
2019-03-16T05:29:27.003Z,-0.9
2019-03-16T05:34:23.729Z,-0.2
2019-03-16T05:39:20.494Z,0.2
2019-03-16T05:44:17.611Z,0.8
2019-03-16T05:49:14.546Z,0.5
2019-03-16T05:54:11.944Z,1.6
2019-03-16T05:59:09.307Z,1.8
2019-03-16T06:04:05.603Z,1.3
2019-03-16T06:09:02.241Z,2.6
2019-03-16T06:13:59.881Z,3.1
2019-03-16T06:18:57.032Z,3
2019-03-16T06:23:54.254Z,3.9
2019-03-16T06:28:51.157Z,2.9
2019-03-16T06:33:46.794Z,2.3
2019-03-16T06:38:43.675Z,3.5
2019-03-16T06:43:41.405Z,2.9
2019-03-16T06:48:37.724Z,3.5
2019-03-16T06:53:35.254Z,3.7
2019-03-16T06:58:33.162Z,4.7
2019-03-16T07:03:30.619Z,5.2
2019-03-16T07:08:26.141Z,4.3
2019-03-16T07:13:22.750Z,4.2
2019-03-16T07:18:20.224Z,4.7
2019-03-16T07:23:15.731Z,3.8
2019-03-16T07:28:13.136Z,4.6
2019-03-16T07:33:09.698Z,4
2019-03-16T07:38:08.315Z,7.3
2019-03-16T07:43:04.488Z,6.1
2019-03-16T07:48:02.073Z,6.9
2019-03-16T07:52:59.345Z,7.7
2019-03-16T07:57:55.626Z,7.6
2019-03-16T08:02:52.119Z,8.4
2019-03-16T08:07:49.773Z,9.2
2019-03-16T08:12:46.559Z,8.6
2019-03-16T08:17:43.296Z,8.9
2019-03-16T08:22:41.131Z,9.5
2019-03-16T08:27:38.065Z,10
2019-03-16T08:32:35.019Z,10
2019-03-16T08:37:32.300Z,11.5
2019-03-16T08:42:30.266Z,12.1
2019-03-16T08:47:27.881Z,13.8
2019-03-16T08:52:27.701Z,12.8
2019-03-16T08:57:23.755Z,13.2
2019-03-16T09:02:21.544Z,14.4
2019-03-16T09:07:18.484Z,13.1
2019-03-16T09:12:15.528Z,13.6
2019-03-16T09:17:11.194Z,12.6
2019-03-16T09:22:09.047Z,13.5
2019-03-16T09:27:05.906Z,15.3
2019-03-16T09:32:03.515Z,14.9
2019-03-16T09:36:59.379Z,13.7
2019-03-16T09:41:56.553Z,15.8
2019-03-16T09:46:53.837Z,15.3
2019-03-16T09:51:49.150Z,13.6
2019-03-16T09:57:00.143Z,13.7
2019-03-16T10:01:57.843Z,15.7
2019-03-16T10:06:53.655Z,15.8
2019-03-16T10:11:49.491Z,15.5
2019-03-16T10:16:47.966Z,15.9
2019-03-16T10:21:44.788Z,17.3
2019-03-16T10:26:42.231Z,16.4
2019-03-16T10:31:36.670Z,16.1
2019-03-16T10:36:33.174Z,16
2019-03-16T10:41:30.174Z,16.6
2019-03-16T10:46:27.077Z,15.4
2019-03-16T10:51:24.408Z,17.7
2019-03-16T10:56:24.220Z,17.2
2019-03-16T11:01:23.217Z,19.1
2019-03-16T11:06:17.831Z,17.1
2019-03-16T11:11:14.200Z,17.2
2019-03-16T11:16:11.734Z,17.5
2019-03-16T11:21:07.756Z,16.3
2019-03-16T11:26:04.914Z,17
2019-03-16T11:31:02.955Z,15.8
2019-03-16T11:36:00.333Z,16.6
2019-03-16T11:40:57.501Z,17.8
2019-03-16T11:45:54.542Z,16.9
2019-03-16T11:50:50.388Z,17.7
2019-03-16T11:55:47.528Z,18.2
2019-03-16T12:00:45.111Z,18.5
2019-03-16T12:05:41.216Z,17.6
2019-03-16T12:10:37.810Z,18.6
2019-03-16T12:15:34.467Z,16.2
2019-03-16T12:20:30.342Z,17.9
2019-03-16T12:25:29.215Z,17.8
2019-03-16T12:30:25.815Z,18.4
2019-03-16T12:35:22.776Z,18.8
2019-03-16T12:40:19.263Z,18.7
2019-03-16T12:45:15.880Z,18.6
2019-03-16T12:50:11.737Z,18.6
2019-03-16T12:55:20.925Z,18.5
2019-03-16T13:00:15.293Z,18.2
2019-03-16T13:05:11.751Z,18.4
2019-03-16T13:10:08.838Z,17.1
2019-03-16T13:15:05.688Z,18
2019-03-16T13:20:02.916Z,17.8
2019-03-16T13:24:59.761Z,17.5
2019-03-16T13:29:59.126Z,17.6
2019-03-16T13:34:55.627Z,17.6
2019-03-16T13:39:52.252Z,17.7
2019-03-16T13:44:49.046Z,17.2
2019-03-16T13:49:46.465Z,17.5
2019-03-16T13:54:43.774Z,16.7
2019-03-16T13:59:40.951Z,17.6
2019-03-16T14:04:37.995Z,17.1
2019-03-16T14:09:34.467Z,17.7
2019-03-16T14:14:31.710Z,17.9
2019-03-16T14:19:28.375Z,17.7
2019-03-16T14:24:24.683Z,17.3
2019-03-16T14:29:22.011Z,17.2
2019-03-16T14:34:18.986Z,17
2019-03-16T14:39:15.809Z,16.8
2019-03-16T14:44:12.318Z,16.7
2019-03-16T14:49:09.011Z,16.7
2019-03-16T14:54:06.067Z,16.5
2019-03-16T14:59:02.731Z,16.4
2019-03-16T15:03:59.449Z,16.4
2019-03-16T15:09:00.005Z,16.3
2019-03-16T15:13:55.444Z,16.1
2019-03-16T15:18:53.252Z,15.9
2019-03-16T15:23:50.538Z,15.7
2019-03-16T15:28:54.720Z,15.5
2019-03-16T15:33:50.935Z,15.4
2019-03-16T15:38:48.106Z,14.6
2019-03-16T15:43:45.050Z,14.9
2019-03-16T15:48:42.296Z,14.2
2019-03-16T15:53:39.193Z,14
2019-03-16T15:58:36.290Z,13.8
2019-03-16T16:03:32.857Z,14.3
2019-03-16T16:08:29.901Z,13.9
2019-03-16T16:13:26.716Z,13.1
2019-03-16T16:18:22.968Z,12.9
2019-03-16T16:23:19.403Z,12.3
2019-03-16T16:28:16.004Z,12.6
2019-03-16T16:33:13.328Z,12.3
2019-03-16T16:38:10.167Z,12.1
2019-03-16T16:43:06.868Z,11.1
2019-03-16T16:48:05.641Z,11.4
2019-03-16T16:53:02.510Z,10.5
2019-03-16T16:58:00.169Z,10.9
2019-03-16T17:02:56.843Z,10.2
2019-03-16T17:07:53.806Z,10.5
2019-03-16T17:12:51.068Z,10.5
2019-03-16T17:17:49.072Z,10.5
2019-03-16T17:22:46.292Z,10.7
2019-03-16T17:27:43.979Z,10.5
2019-03-16T17:32:40.456Z,11.1
2019-03-16T17:37:37.207Z,10.4
2019-03-16T17:42:34.073Z,10.2
2019-03-16T17:47:31.265Z,10.9
2019-03-16T17:52:28.201Z,10.1
2019-03-16T17:57:24.658Z,10
2019-03-16T18:02:21.953Z,8.9
2019-03-16T18:07:18.477Z,10.5
2019-03-16T18:12:14.973Z,9.6
2019-03-16T18:17:11.489Z,8.9
2019-03-16T18:22:08.470Z,9.1
2019-03-16T18:27:06.523Z,8.8
2019-03-16T18:32:08.018Z,8.8
2019-03-16T18:37:04.134Z,7.8
2019-03-16T18:42:00.803Z,8.3
2019-03-16T18:46:57.893Z,8.4
2019-03-16T18:51:54.587Z,8.6
2019-03-16T18:56:51.583Z,8.6
2019-03-16T19:01:48.585Z,8.5
2019-03-16T19:06:45.744Z,8.4
2019-03-16T19:11:43.042Z,8.1
2019-03-16T19:16:39.296Z,7.4
2019-03-16T19:21:36.189Z,8.1
2019-03-16T19:26:32.375Z,8.1
2019-03-16T19:31:28.897Z,7.6
2019-03-16T19:36:25.760Z,7.4
2019-03-16T19:41:22.664Z,7.2
2019-03-16T19:46:19.455Z,6.7
2019-03-16T19:51:15.772Z,7.2
2019-03-16T19:56:12.562Z,0.5
2019-03-16T20:01:09.235Z,6.7
2019-03-16T20:06:06.350Z,6.4
2019-03-16T20:11:06.635Z,6.4
2019-03-16T20:16:03.865Z,6.5
2019-03-16T20:21:00.577Z,6.3
2019-03-16T20:25:57.241Z,6.4
2019-03-16T20:30:54.076Z,6.6
2019-03-16T20:35:51.241Z,6.9
2019-03-16T20:40:49.932Z,7.4
2019-03-16T20:45:47.163Z,7.6
2019-03-16T20:50:43.862Z,7.6
2019-03-16T20:55:40.958Z,7.7
2019-03-16T21:00:37.924Z,7.7
2019-03-16T21:05:35.056Z,7.9
2019-03-16T21:10:32.019Z,8
2019-03-16T21:15:28.899Z,7.9
2019-03-16T21:20:25.865Z,8
2019-03-16T21:25:23.321Z,8.1
2019-03-16T21:30:20.377Z,8.2
2019-03-16T21:35:16.900Z,7.4
2019-03-16T21:40:13.712Z,6.7
2019-03-16T21:45:10.466Z,7.9
2019-03-16T21:50:07.243Z,7.7
2019-03-16T21:55:04.231Z,7.4
2019-03-16T22:00:00.966Z,7.3
2019-03-16T22:04:57.453Z,7
2019-03-16T22:09:54.380Z,6.8
2019-03-16T22:14:51.131Z,6.5
2019-03-16T22:19:47.636Z,6.4
2019-03-16T22:24:44.347Z,6.3
2019-03-16T22:29:41.009Z,6.1
2019-03-16T22:34:37.364Z,6.1
2019-03-16T22:39:34.235Z,6.7
2019-03-16T22:44:30.815Z,5.7
2019-03-16T22:49:27.507Z,5.7
2019-03-16T22:54:24.463Z,5.2
2019-03-16T22:59:21.353Z,5.9
2019-03-16T23:04:17.922Z,5.2
2019-03-16T23:09:14.482Z,5.3
2019-03-16T23:14:11.130Z,4.5
2019-03-16T23:19:07.752Z,5
2019-03-16T23:24:04.450Z,4.2
2019-03-16T23:29:01.606Z,5.3
2019-03-16T23:33:58.371Z,4.6
2019-03-16T23:38:55.474Z,5.3
2019-03-16T23:43:52.131Z,4.1
2019-03-16T23:48:48.299Z,4.8
2019-03-16T23:53:44.892Z,4.4
2019-03-16T23:58:41.530Z,4.2
